createdAt,value
2019-03-21T00:01:45.444Z,103372.70
2019-03-21T00:04:18.917Z,103370.91
2019-03-21T00:06:52.302Z,103368.20
2019-03-21T00:09:25.746Z,103365.53
2019-03-21T00:12:05.506Z,103360.75
2019-03-21T00:14:44.949Z,103365.50
2019-03-21T00:17:33.502Z,103366.34
2019-03-21T00:20:09.852Z,103361.00
2019-03-21T00:22:43.451Z,103355.75
2019-03-21T00:25:22.360Z,103361.70
2019-03-21T00:27:55.840Z,103363.85
2019-03-21T00:30:29.239Z,103360.75
2019-03-21T00:33:02.643Z,103364.20
2019-03-21T00:35:38.489Z,103362.37
2019-03-21T00:38:11.675Z,103366.70
2019-03-21T00:40:46.006Z,103361.03
2019-03-21T00:43:19.404Z,103360.12
2019-03-21T00:45:52.799Z,103363.56
2019-03-21T00:48:26.595Z,103363.11
2019-03-21T00:51:01.230Z,103365.26
2019-03-21T00:53:34.681Z,103368.21
2019-03-21T00:56:08.147Z,103362.09
2019-03-21T00:58:41.553Z,103359.91
2019-03-21T01:01:14.870Z,103361.17
2019-03-21T01:03:48.582Z,103354.56
2019-03-21T01:06:21.896Z,103351.89
2019-03-21T01:08:55.349Z,103357.94
2019-03-21T01:11:28.763Z,103365.28
2019-03-21T01:14:02.238Z,103367.01
2019-03-21T01:16:35.590Z,103360.04
2019-03-21T01:19:09.086Z,103359.97
2019-03-21T01:21:42.543Z,103351.25
2019-03-21T01:24:15.939Z,103354.23
2019-03-21T01:26:49.440Z,103356.31
2019-03-21T01:29:22.924Z,103352.83
2019-03-21T01:31:56.435Z,103354.52
2019-03-21T01:34:29.805Z,103356.66
2019-03-21T01:37:03.326Z,103347.94
2019-03-21T01:39:36.711Z,103352.68
2019-03-21T01:42:10.121Z,103346.98
2019-03-21T01:44:43.335Z,103350.42
2019-03-21T01:47:16.691Z,103345.95
2019-03-21T01:49:50.193Z,103346.80
2019-03-21T01:52:24.255Z,103339.84
2019-03-21T01:54:58.076Z,103338.47
2019-03-21T01:57:31.503Z,103338.88
2019-03-21T02:00:08.239Z,103333.61
2019-03-21T02:02:42.240Z,103336.59
2019-03-21T02:05:15.640Z,103332.20
2019-03-21T02:07:49.775Z,103336.94
2019-03-21T02:10:23.554Z,103332.58
2019-03-21T02:12:57.132Z,103328.64
2019-03-21T02:15:31.038Z,103337.28
2019-03-21T02:18:05.009Z,103332.50
2019-03-21T02:20:38.825Z,103332.05
2019-03-21T02:23:13.946Z,103329.44
2019-03-21T02:25:48.445Z,103323.70
2019-03-21T02:28:22.080Z,103323.67
2019-03-21T02:30:55.623Z,103314.11
2019-03-21T02:33:31.722Z,103321.45
2019-03-21T02:36:08.491Z,103315.38
2019-03-21T02:38:41.927Z,103317.94
2019-03-21T02:41:16.155Z,103314.84
2019-03-21T02:43:49.846Z,103304.82
2019-03-21T02:46:23.283Z,103308.27
2019-03-21T02:48:56.631Z,103308.27
2019-03-21T02:51:30.241Z,103299.55
2019-03-21T02:54:05.386Z,103308.19
2019-03-21T02:56:39.816Z,103312.97
2019-03-21T02:59:13.532Z,103309.83
2019-03-21T03:01:46.951Z,103311.52
2019-03-21T03:04:20.389Z,103314.99
2019-03-21T03:06:54.550Z,103310.22
2019-03-21T03:09:27.982Z,103307.58
2019-03-21T03:12:01.486Z,103311.89
2019-03-21T03:14:34.900Z,103307.95
2019-03-21T03:17:08.276Z,103306.62
2019-03-21T03:19:41.772Z,103303.11
2019-03-21T03:22:15.123Z,103304.78
2019-03-21T03:24:48.610Z,103305.20
2019-03-21T03:27:22.402Z,103310.36
2019-03-21T03:29:55.901Z,103306.42
2019-03-21T03:32:29.480Z,103306.84
2019-03-21T03:35:03.215Z,103307.27
2019-03-21T03:37:36.906Z,103304.59
2019-03-21T03:40:23.727Z,103308.91
2019-03-21T03:42:57.507Z,103305.39
2019-03-21T03:45:38.302Z,103311.43
2019-03-21T03:48:11.850Z,103304.36
2019-03-21T03:50:45.211Z,103310.44
2019-03-21T03:53:18.876Z,103303.05
2019-03-21T03:55:52.276Z,103303.48
2019-03-21T03:58:40.356Z,103292.58
2019-03-21T04:01:14.062Z,103296.02
2019-03-21T04:03:47.530Z,103296.40
2019-03-21T04:06:20.895Z,103294.68
2019-03-21T04:08:54.249Z,103304.54
2019-03-21T04:11:27.737Z,103306.72
2019-03-21T04:14:01.307Z,103300.64
2019-03-21T04:16:34.725Z,103305.34
2019-03-21T04:19:08.249Z,103303.16
2019-03-21T04:21:41.648Z,103300.10
2019-03-21T04:24:15.260Z,103300.94
2019-03-21T04:26:48.987Z,103300.48
2019-03-21T04:29:22.512Z,103299.10
2019-03-21T04:31:55.906Z,103298.22
2019-03-21T04:34:29.321Z,103297.30
2019-03-21T04:37:02.976Z,103300.73
2019-03-21T04:39:36.493Z,103294.70
2019-03-21T04:42:10.554Z,103293.03
2019-03-21T04:44:44.538Z,103300.05
2019-03-21T04:47:19.422Z,103295.91
2019-03-21T04:49:53.253Z,103300.00
2019-03-21T04:52:27.145Z,103301.57
2019-03-21T04:55:00.615Z,103304.52
2019-03-21T04:57:34.672Z,103307.80
2019-03-21T05:00:17.372Z,103304.73
2019-03-21T05:02:53.039Z,103310.73
2019-03-21T05:05:26.375Z,103312.08
2019-03-21T05:07:59.830Z,103305.53
2019-03-21T05:10:33.305Z,103311.58
2019-03-21T05:13:07.039Z,103314.59
2019-03-21T05:15:45.810Z,103320.64
2019-03-21T05:18:25.453Z,103322.38
2019-03-21T05:21:00.306Z,103321.87
2019-03-21T05:23:33.762Z,103317.39
2019-03-21T05:26:07.121Z,103324.56
2019-03-21T05:28:40.525Z,103330.39
2019-03-21T05:31:26.443Z,103330.08
2019-03-21T05:33:59.888Z,103329.28
2019-03-21T05:36:33.233Z,103330.59
2019-03-21T05:39:09.115Z,103335.35
2019-03-21T05:41:42.671Z,103326.25
2019-03-21T05:44:31.261Z,103329.69
2019-03-21T05:47:05.004Z,103324.84
2019-03-21T05:49:38.705Z,103332.54
2019-03-21T05:52:12.481Z,103334.27
2019-03-21T05:54:46.120Z,103334.57
2019-03-21T05:57:19.508Z,103327.14
2019-03-21T05:59:53.147Z,103328.78
2019-03-21T06:02:27.195Z,103330.94
2019-03-21T06:05:00.672Z,103325.69
2019-03-21T06:07:37.848Z,103324.30
2019-03-21T06:10:14.593Z,103331.14
2019-03-21T06:12:47.937Z,103334.14
2019-03-21T06:15:24.482Z,103332.81
2019-03-21T06:18:01.167Z,103329.66
2019-03-21T06:20:55.852Z,103327.90
2019-03-21T06:23:48.915Z,103333.95
2019-03-21T06:26:50.365Z,103343.34
2019-03-21T06:29:23.982Z,103343.56
2019-03-21T06:31:57.551Z,103339.43
2019-03-21T06:34:31.284Z,103344.64
2019-03-21T06:37:04.743Z,103345.81
2019-03-21T06:39:38.338Z,103346.62
2019-03-21T06:42:11.653Z,103338.36
2019-03-21T06:44:46.126Z,103333.37
2019-03-21T06:47:19.272Z,103344.56
2019-03-21T06:49:52.691Z,103346.39
2019-03-21T06:52:26.115Z,103346.84
2019-03-21T06:55:00.676Z,103349.73
2019-03-21T06:57:34.818Z,103353.67
2019-03-21T07:00:09.860Z,103353.36
2019-03-21T07:02:43.279Z,103361.98
2019-03-21T07:05:16.679Z,103363.64
2019-03-21T07:07:50.393Z,103367.19
2019-03-21T07:10:25.178Z,103363.00
2019-03-21T07:12:58.700Z,103368.59
2019-03-21T07:15:32.016Z,103370.28
2019-03-21T07:18:05.769Z,103363.80
2019-03-21T07:20:39.353Z,103365.08
2019-03-21T07:23:13.790Z,103374.61
2019-03-21T07:25:47.219Z,103382.00
2019-03-21T07:28:20.562Z,103376.83
2019-03-21T07:30:55.543Z,103382.45
2019-03-21T07:33:29.198Z,103377.22
2019-03-21T07:36:02.612Z,103386.19
2019-03-21T07:38:36.029Z,103383.16
2019-03-21T07:41:09.596Z,103393.05
2019-03-21T07:43:42.936Z,103390.77
2019-03-21T07:46:16.522Z,103390.27
2019-03-21T07:48:49.927Z,103388.16
2019-03-21T07:51:23.637Z,103390.69
2019-03-21T07:53:57.044Z,103398.08
2019-03-21T07:56:30.467Z,103401.14
2019-03-21T07:59:03.885Z,103389.42
2019-03-21T08:01:38.093Z,103397.73
2019-03-21T08:04:11.683Z,103394.56
2019-03-21T08:06:45.032Z,103399.73
2019-03-21T08:09:18.603Z,103404.94
2019-03-21T08:11:52.045Z,103407.58
2019-03-21T08:14:25.347Z,103413.20
2019-03-21T08:16:58.894Z,103410.95
2019-03-21T08:19:32.214Z,103409.23
2019-03-21T08:22:05.623Z,103419.19
2019-03-21T08:24:38.975Z,103419.25
2019-03-21T08:27:14.437Z,103422.09
2019-03-21T08:29:47.786Z,103426.73
2019-03-21T08:32:21.662Z,103430.60
2019-03-21T08:34:55.177Z,103431.14
2019-03-21T08:37:28.542Z,103435.00
2019-03-21T08:40:03.028Z,103431.26
2019-03-21T08:42:36.563Z,103430.30
2019-03-21T08:45:09.927Z,103437.20
2019-03-21T08:47:43.346Z,103431.11
2019-03-21T08:50:16.846Z,103429.77
2019-03-21T08:52:50.562Z,103428.09
2019-03-21T08:55:23.851Z,103428.58
2019-03-21T08:57:57.218Z,103434.70
2019-03-21T09:00:34.439Z,103439.64
2019-03-21T09:03:05.561Z,103433.13
2019-03-21T09:05:38.880Z,103440.02
2019-03-21T09:08:12.399Z,103439.22
2019-03-21T09:10:45.770Z,103444.35
2019-03-21T09:13:19.270Z,103444.27
2019-03-21T09:15:52.762Z,103439.53
2019-03-21T09:18:26.262Z,103439.98
2019-03-21T09:20:59.605Z,103436.65
2019-03-21T09:23:32.980Z,103436.54
2019-03-21T09:26:06.281Z,103438.34
2019-03-21T09:28:39.633Z,103437.11
2019-03-21T09:31:13.008Z,103436.96
2019-03-21T09:33:46.177Z,103437.49
2019-03-21T09:36:21.154Z,103449.28
2019-03-21T09:38:55.586Z,103448.82
2019-03-21T09:41:28.924Z,103445.34
2019-03-21T09:44:03.906Z,103443.54
2019-03-21T09:46:37.204Z,103452.66
2019-03-21T09:49:10.568Z,103451.81
2019-03-21T09:51:44.195Z,103450.05
2019-03-21T09:54:18.082Z,103447.37
2019-03-21T09:56:51.376Z,103440.02
2019-03-21T09:59:24.898Z,103438.38
2019-03-21T10:01:58.290Z,103441.33
2019-03-21T10:04:31.723Z,103350.33
2019-03-21T10:07:05.143Z,103444.84
2019-03-21T10:09:38.692Z,103453.11
2019-03-21T10:12:12.125Z,103449.55
2019-03-21T10:14:45.680Z,103448.22
2019-03-21T10:17:19.324Z,103436.39
2019-03-21T10:19:52.735Z,103448.17
2019-03-21T10:22:26.314Z,103445.19
2019-03-21T10:24:59.633Z,103442.12
2019-03-21T10:27:34.612Z,103436.84
2019-03-21T10:30:08.454Z,103433.86
2019-03-21T10:32:42.938Z,103444.35
2019-03-21T10:35:16.360Z,103440.45
2019-03-21T10:37:49.663Z,103444.45
2019-03-21T10:40:24.128Z,103446.72
2019-03-21T10:42:57.428Z,103449.43
2019-03-21T10:45:30.875Z,103447.78
2019-03-21T10:48:04.552Z,103440.08
2019-03-21T10:50:39.633Z,103434.88
2019-03-21T10:53:12.989Z,103434.91
2019-03-21T10:55:46.568Z,103438.02
2019-03-21T10:58:19.872Z,103439.80
2019-03-21T11:00:54.416Z,103443.29
2019-03-21T11:03:27.781Z,103442.09
2019-03-21T11:06:01.114Z,103443.02
2019-03-21T11:08:34.532Z,103437.84
2019-03-21T11:11:07.831Z,103436.92
2019-03-21T11:13:41.194Z,103439.56
2019-03-21T11:16:14.503Z,103440.87
2019-03-21T11:18:47.893Z,103435.59
2019-03-21T11:21:21.197Z,103438.61
2019-03-21T11:23:54.615Z,103433.90
2019-03-21T11:26:28.174Z,103433.06
2019-03-21T11:29:01.539Z,103437.42
2019-03-21T11:31:34.929Z,103439.11
2019-03-21T11:34:08.355Z,103439.08
2019-03-21T11:36:41.889Z,103441.25
2019-03-21T11:39:15.330Z,103435.17
2019-03-21T11:41:48.654Z,103434.29
2019-03-21T11:44:22.231Z,103431.65
2019-03-21T11:46:55.771Z,103425.14
2019-03-21T11:49:29.163Z,103430.34
2019-03-21T11:52:02.565Z,103427.21
2019-03-21T11:54:36.055Z,103432.84
2019-03-21T11:57:09.487Z,103431.96
2019-03-21T11:59:51.530Z,103428.86
2019-03-21T12:02:26.752Z,103424.08
2019-03-21T12:04:53.321Z,103419.37
2019-03-21T12:07:27.728Z,103416.34
2019-03-21T12:10:00.916Z,103418.03
2019-03-21T12:12:34.309Z,103411.09
2019-03-21T12:15:12.351Z,103411.02
2019-03-21T12:17:46.079Z,103406.70
2019-03-21T12:20:27.629Z,103411.02
2019-03-21T12:23:01.115Z,103410.49
2019-03-21T12:25:34.457Z,103406.59
2019-03-21T12:28:07.861Z,103406.59
2019-03-21T12:30:41.437Z,103405.75
2019-03-21T12:33:14.829Z,103395.83
2019-03-21T12:35:48.260Z,103395.34
2019-03-21T12:38:21.598Z,103394.52
2019-03-21T12:40:55.145Z,103387.53
2019-03-21T12:43:28.482Z,103386.64
2019-03-21T12:46:02.024Z,103391.01
2019-03-21T12:48:35.528Z,103390.55
2019-03-21T12:51:08.954Z,103388.38
2019-03-21T12:53:42.276Z,103392.70
2019-03-21T12:56:15.627Z,103391.36
2019-03-21T12:58:50.190Z,103391.81
2019-03-21T13:01:23.556Z,103390.13
2019-03-21T13:03:57.060Z,103384.01
2019-03-21T13:06:30.424Z,103385.73
2019-03-21T13:09:06.372Z,103391.81
2019-03-21T13:11:39.845Z,103393.12
2019-03-21T13:14:13.166Z,103388.33
2019-03-21T13:16:46.700Z,103385.27
2019-03-21T13:19:20.039Z,103384.39
2019-03-21T13:21:53.543Z,103378.20
2019-03-21T13:24:27.272Z,103373.06
2019-03-21T13:27:00.721Z,103373.06
2019-03-21T13:29:34.179Z,103370.46
2019-03-21T13:32:07.706Z,103371.77
2019-03-21T13:34:40.968Z,103368.21
2019-03-21T13:37:14.323Z,103368.67
2019-03-21T13:39:47.634Z,103361.25
2019-03-21T13:42:21.006Z,103362.69
2019-03-21T13:44:54.409Z,103359.20
2019-03-21T13:47:29.471Z,103359.66
2019-03-21T13:50:04.865Z,103360.55
2019-03-21T13:52:39.279Z,103360.97
2019-03-21T13:55:12.813Z,103358.82
2019-03-21T13:57:46.213Z,103354.07
2019-03-21T14:00:20.804Z,103347.53
2019-03-21T14:02:54.201Z,103348.34
2019-03-21T14:05:27.521Z,103343.06
2019-03-21T14:08:00.985Z,103338.66
2019-03-21T14:10:34.446Z,103330.86
2019-03-21T14:13:07.916Z,103327.23
2019-03-21T14:15:42.309Z,103328.54
2019-03-21T14:18:15.873Z,103327.23
2019-03-21T14:20:49.225Z,103319.42
2019-03-21T14:23:23.284Z,103312.47
2019-03-21T14:25:56.733Z,103302.86
2019-03-21T14:28:30.103Z,103311.97
2019-03-21T14:31:03.504Z,103311.09
2019-03-21T14:33:37.002Z,103309.37
2019-03-21T14:36:10.317Z,103302.83
2019-03-21T14:38:43.758Z,103305.47
2019-03-21T14:41:17.236Z,103301.14
2019-03-21T14:43:50.863Z,103301.59
2019-03-21T14:46:24.292Z,103304.66
2019-03-21T14:48:57.759Z,103296.88
2019-03-21T14:51:31.213Z,103304.69
2019-03-21T14:54:04.570Z,103304.66
2019-03-21T14:56:37.918Z,103302.44
2019-03-21T14:59:11.325Z,103302.83
2019-03-21T15:01:44.943Z,103293.33
2019-03-21T15:04:18.326Z,103296.43
2019-03-21T15:06:51.709Z,103294.77
2019-03-21T15:09:25.192Z,103298.58
2019-03-21T15:11:59.011Z,103295.13
2019-03-21T15:14:32.539Z,103293.27
2019-03-21T15:17:06.016Z,103289.78
2019-03-21T15:19:39.502Z,103295.48
2019-03-21T15:22:14.062Z,103296.39
2019-03-21T15:24:47.603Z,103298.47
2019-03-21T15:27:21.061Z,103297.70
2019-03-21T15:29:56.266Z,103289.47
2019-03-21T15:32:30.193Z,103281.69
2019-03-21T15:35:07.272Z,103284.27
2019-03-21T15:37:40.699Z,103280.78
2019-03-21T15:40:14.816Z,103284.65
2019-03-21T15:42:48.575Z,103280.78
2019-03-21T15:45:23.781Z,103285.14
2019-03-21T15:47:57.529Z,103280.33
2019-03-21T15:50:38.372Z,103285.95
2019-03-21T15:53:11.968Z,103284.19
2019-03-21T15:55:45.483Z,103286.38
2019-03-21T15:58:18.978Z,103282.78
2019-03-21T16:00:52.861Z,103277.16
2019-03-21T16:03:26.298Z,103276.70
2019-03-21T16:05:59.629Z,103267.56
2019-03-21T16:08:33.183Z,103276.28
2019-03-21T16:11:06.613Z,103270.62
2019-03-21T16:13:40.270Z,103272.77
2019-03-21T16:16:13.759Z,103273.16
2019-03-21T16:18:47.414Z,103270.97
2019-03-21T16:21:20.809Z,103273.16
2019-03-21T16:24:04.666Z,103272.70
2019-03-21T16:26:29.236Z,103272.73
2019-03-21T16:29:02.760Z,103268.86
2019-03-21T16:31:36.348Z,103271.50
2019-03-21T16:34:11.280Z,103274.66
2019-03-21T16:36:45.161Z,103274.83
2019-03-21T16:39:20.575Z,103275.81
2019-03-21T16:41:54.216Z,103280.80
2019-03-21T16:44:27.926Z,103279.20
2019-03-21T16:47:01.538Z,103277.52
2019-03-21T16:49:34.910Z,103273.35
2019-03-21T16:52:08.844Z,103277.39
2019-03-21T16:54:42.648Z,103277.91
2019-03-21T16:57:16.248Z,103272.80
2019-03-21T16:59:50.575Z,103272.34
2019-03-21T17:02:24.541Z,103266.31
2019-03-21T17:04:58.278Z,103182.97
2019-03-21T17:07:31.852Z,103276.31
2019-03-21T17:10:13.915Z,103280.77
2019-03-21T17:12:47.798Z,103280.28
2019-03-21T17:15:21.394Z,103279.83
2019-03-21T17:17:55.099Z,103288.45
2019-03-21T17:20:28.637Z,103281.45
2019-03-21T17:23:02.159Z,103281.45
2019-03-21T17:25:35.573Z,103280.97
2019-03-21T17:28:09.490Z,103281.45
2019-03-21T17:30:43.800Z,103285.03
2019-03-21T17:33:17.301Z,103288.06
2019-03-21T17:35:51.592Z,103288.97
2019-03-21T17:38:25.182Z,103286.89
2019-03-21T17:40:58.841Z,103286.50
2019-03-21T17:43:32.236Z,103292.09
2019-03-21T17:46:05.678Z,103285.03
2019-03-21T17:48:40.345Z,103286.89
2019-03-21T17:51:13.729Z,103285.13
2019-03-21T17:53:47.346Z,103290.18
2019-03-21T17:56:20.844Z,103298.84
2019-03-21T17:58:54.164Z,103293.17
2019-03-21T18:01:27.684Z,103299.62
2019-03-21T18:04:00.989Z,103305.70
2019-03-21T18:06:34.313Z,103303.52
2019-03-21T18:09:07.911Z,103305.16
2019-03-21T18:11:41.432Z,103304.77
2019-03-21T18:14:14.792Z,103303.75
2019-03-21T18:16:48.164Z,103310.78
2019-03-21T18:19:21.623Z,103314.59
2019-03-21T18:21:56.041Z,103315.86
2019-03-21T18:24:29.466Z,103311.27
2019-03-21T18:27:03.186Z,103318.14
2019-03-21T18:29:36.730Z,103322.53
2019-03-21T18:32:10.270Z,103321.09
2019-03-21T18:34:43.986Z,103328.00
2019-03-21T18:37:17.768Z,103325.78
2019-03-21T18:39:51.260Z,103332.33
2019-03-21T18:42:24.795Z,103325.75
2019-03-21T18:44:58.052Z,103326.98
2019-03-21T18:47:31.934Z,103325.93
2019-03-21T18:50:10.329Z,103324.63
2019-03-21T18:52:43.989Z,103324.10
2019-03-21T18:55:17.400Z,103316.78
2019-03-21T18:57:51.182Z,103317.84
2019-03-21T19:00:24.590Z,103323.08
2019-03-21T19:03:00.496Z,103329.69
2019-03-21T19:05:37.125Z,103326.95
2019-03-21T19:08:11.378Z,103327.38
2019-03-21T19:11:03.681Z,103320.86
2019-03-21T19:13:49.860Z,103326.52
2019-03-21T19:16:25.118Z,103331.63
2019-03-21T19:19:03.204Z,103328.53
2019-03-21T19:21:38.686Z,103321.64
2019-03-21T19:24:14.151Z,103314.60
2019-03-21T19:26:53.616Z,103315.88
2019-03-21T19:29:29.153Z,103313.63
2019-03-21T19:32:02.681Z,103318.05
2019-03-21T19:34:36.203Z,103313.30
2019-03-21T19:37:09.669Z,103308.48
2019-03-21T19:39:43.817Z,103301.16
2019-03-21T19:42:17.947Z,103301.42
2019-03-21T19:44:51.739Z,103303.59
2019-03-21T19:47:30.323Z,103303.56
2019-03-21T19:50:00.673Z,103300.61
2019-03-21T19:52:34.137Z,103298.39
2019-03-21T19:55:08.131Z,103299.70
2019-03-21T19:57:41.505Z,103294.88
2019-03-21T20:00:22.001Z,103292.70
2019-03-21T20:02:55.399Z,103290.77
2019-03-21T20:05:28.796Z,103289.81
2019-03-21T20:08:02.299Z,103295.77
2019-03-21T20:10:35.756Z,103294.88
2019-03-21T20:13:09.243Z,103301.53
2019-03-21T20:15:42.806Z,103295.45
2019-03-21T20:18:16.391Z,103298.72
2019-03-21T20:20:50.063Z,103302.20
2019-03-21T20:23:23.464Z,103219.26
2019-03-21T20:25:56.860Z,103296.95
2019-03-21T20:28:30.295Z,103300.89
2019-03-21T20:31:03.720Z,103293.55
2019-03-21T20:33:37.120Z,103289.50
2019-03-21T20:36:10.524Z,103288.73
2019-03-21T20:38:43.925Z,103286.12
2019-03-21T20:41:17.383Z,103289.19
2019-03-21T20:43:50.910Z,103297.45
2019-03-21T20:46:24.272Z,103306.17
2019-03-21T20:48:56.705Z,103308.39
2019-03-21T20:51:30.088Z,103298.92
2019-03-21T20:54:03.352Z,103203.34
2019-03-21T20:56:37.045Z,103299.00
2019-03-21T20:59:10.228Z,103299.45
2019-03-21T21:01:43.637Z,103289.43
2019-03-21T21:04:17.122Z,103289.85
2019-03-21T21:06:50.648Z,103290.73
2019-03-21T21:09:24.068Z,103287.22
2019-03-21T21:11:57.412Z,103280.71
2019-03-21T21:14:30.806Z,103278.46
2019-03-21T21:17:04.167Z,103281.06
2019-03-21T21:19:37.675Z,103281.91
2019-03-21T21:22:11.055Z,103178.75
2019-03-21T21:24:44.361Z,103282.75
2019-03-21T21:27:17.689Z,103279.70
2019-03-21T21:29:52.264Z,103277.09
2019-03-21T21:32:25.840Z,103278.78
2019-03-21T21:34:59.273Z,103281.80
2019-03-21T21:37:32.783Z,103273.12
2019-03-21T21:40:07.654Z,103278.33
2019-03-21T21:42:41.016Z,103284.30
2019-03-21T21:45:15.652Z,103280.36
2019-03-21T21:47:49.058Z,103276.88
2019-03-21T21:50:22.384Z,103277.30
2019-03-21T21:52:56.033Z,103276.88
2019-03-21T21:55:29.402Z,103276.00
2019-03-21T21:58:04.339Z,103272.94
2019-03-21T22:00:37.690Z,103269.36
2019-03-21T22:03:11.006Z,103269.32
2019-03-21T22:05:44.562Z,103274.48
2019-03-21T22:08:17.905Z,103274.42
2019-03-21T22:10:51.250Z,103270.52
2019-03-21T22:13:24.596Z,103267.91
2019-03-21T22:15:57.860Z,103269.98
2019-03-21T22:18:31.396Z,103267.35
2019-03-21T22:21:04.853Z,103267.31
2019-03-21T22:23:38.192Z,103261.16
2019-03-21T22:26:11.669Z,103262.81
2019-03-21T22:28:44.993Z,103257.16
2019-03-21T22:31:18.290Z,103252.34
2019-03-21T22:33:52.030Z,103258.80
2019-03-21T22:36:25.367Z,103267.45
2019-03-21T22:38:58.994Z,103261.37
2019-03-21T22:41:32.379Z,103259.96
2019-03-21T22:44:05.708Z,103255.60
2019-03-21T22:46:39.029Z,103255.98
2019-03-21T22:49:12.382Z,103249.84
2019-03-21T22:51:46.685Z,103240.28
2019-03-21T22:54:20.076Z,103242.42
2019-03-21T22:56:53.530Z,103242.80
2019-03-21T22:59:26.869Z,103245.37
2019-03-21T23:02:01.593Z,103247.09
2019-03-21T23:04:35.082Z,103244.38
2019-03-21T23:07:08.468Z,103243.50
2019-03-21T23:09:41.798Z,103239.10
2019-03-21T23:12:15.273Z,103235.66
2019-03-21T23:14:48.711Z,103235.17
2019-03-21T23:17:22.140Z,103231.23
2019-03-21T23:19:55.465Z,103226.84
2019-03-21T23:22:28.832Z,103216.83
2019-03-21T23:25:02.976Z,103213.31
2019-03-21T23:27:36.405Z,103217.20
2019-03-21T23:30:17.555Z,103220.19
2019-03-21T23:32:50.891Z,103215.41
2019-03-21T23:35:24.221Z,103210.59
2019-03-21T23:37:57.558Z,103220.08
2019-03-21T23:40:32.033Z,103217.41
2019-03-21T23:43:05.432Z,103216.52
2019-03-21T23:45:38.739Z,103218.25
2019-03-21T23:48:12.202Z,103216.06
2019-03-21T23:50:45.595Z,103206.90
2019-03-21T23:53:18.967Z,103202.96
2019-03-21T23:55:52.543Z,103204.27
2019-03-21T23:58:25.914Z,103201.62
